Time;durP1;ratioP1;P1;durP2;ratioP2;P2;SDS_P1;SDS_P2;PMS_P1;PMS_P2;Temp;Humidity;BMP_temperature;BMP_pressure;BME280_temperature;BME280_humidity;BME280_pressure;Samples;Min_cycle;Max_cycle;Signal;HPM_P1;HPM_P2
2022/09/14 00:00:56;;;;;;;5.97;4.78;;;13.30;99.90;;;;;;5006344;28;20046;-82
2022/09/14 00:03:22;;;;;;;5.38;2.67;;;13.20;99.90;;;;;;4994104;28;20146;-82
2022/09/14 00:05:48;;;;;;;5.68;3.40;;;13.20;99.90;;;;;;4999640;28;20046;-82
2022/09/14 00:08:14;;;;;;;11.38;4.93;;;13.20;99.90;;;;;;4997927;28;20477;-84
2022/09/14 00:10:44;;;;;;;6.60;3.25;;;13.10;99.90;;;;;;5004262;28;20048;-81
2022/09/14 00:13:12;;;;;;;6.63;4.20;;;13.10;99.90;;;;;;5006204;28;20046;-81
2022/09/14 00:15:40;;;;;;;4.95;3.42;;;13.10;99.90;;;;;;5001070;28;20097;-81
2022/09/14 00:18:08;;;;;;;9.75;3.38;;;13.10;99.90;;;;;;5003309;28;20041;-82
2022/09/14 00:20:34;;;;;;;4.75;2.58;;;13.20;99.90;;;;;;5019275;28;20534;-83
2022/09/14 00:23:00;;;;;;;4.97;3.00;;;13.10;99.90;;;;;;5005654;28;20073;-82
2022/09/14 00:25:26;;;;;;;4.55;2.72;;;13.10;99.90;;;;;;5004690;28;20406;-81
2022/09/14 00:27:53;;;;;;;4.85;2.58;;;13.10;99.90;;;;;;5004067;28;20078;-81
2022/09/14 00:30:20;;;;;;;11.95;3.97;;;13.20;99.90;;;;;;5002630;28;20127;-82
2022/09/14 00:32:46;;;;;;;7.40;3.17;;;13.10;99.90;;;;;;4992034;28;20057;-81
2022/09/14 00:35:12;;;;;;;7.18;3.20;;;13.20;99.90;;;;;;5004377;28;20041;-83
2022/09/14 00:37:38;;;;;;;3.72;2.28;;;13.20;99.90;;;;;;5003983;28;20034;-82
2022/09/14 00:40:05;;;;;;;3.40;2.03;;;13.20;99.90;;;;;;5004058;28;20042;-82
2022/09/14 00:42:31;;;;;;;11.98;3.20;;;13.10;99.90;;;;;;5005151;28;20034;-82
2022/09/14 00:45:00;;;;;;;3.90;1.63;;;13.10;99.90;;;;;;5003215;28;20123;-82
2022/09/14 00:47:26;;;;;;;8.20;1.70;;;13.20;99.90;;;;;;4981759;28;20061;-82
2022/09/14 00:49:53;;;;;;;6.13;1.63;;;13.10;99.90;;;;;;4997936;28;20148;-83
2022/09/14 00:52:28;;;;;;;4.68;1.48;;;13.10;99.90;;;;;;5005975;28;20038;-81
2022/09/14 00:55:07;;;;;;;4.63;1.65;;;13.10;99.90;;;;;;4995662;28;20441;-82
2022/09/14 00:57:46;;;;;;;4.43;2.13;;;13.20;99.90;;;;;;4991286;28;20046;-81
2022/09/14 01:00:14;;;;;;;9.75;2.15;;;13.10;99.90;;;;;;4993494;28;20045;-81
2022/09/14 01:02:40;;;;;;;6.18;1.85;;;13.20;99.90;;;;;;5004095;28;20050;-81
2022/09/14 01:05:08;;;;;;;3.88;2.08;;;13.20;99.90;;;;;;5001440;28;20108;-82
2022/09/14 01:08:07;;;;;;;9.98;2.60;;;13.20;99.90;;;;;;4987317;28;20125;-82
2022/09/14 01:10:42;;;;;;;8.15;2.88;;;13.20;99.90;;;;;;4993179;28;20057;-83
2022/09/14 01:13:28;;;;;;;7.28;3.70;;;13.30;99.90;;;;;;5005188;28;20091;-81
2022/09/14 01:16:06;;;;;;;7.25;3.17;;;13.30;99.90;;;;;;4998679;28;20041;-82
2022/09/14 01:18:59;;;;;;;7.18;3.55;;;13.30;99.90;;;;;;5004278;28;20053;-82
2022/09/14 01:21:31;;;;;;;3.95;2.08;;;13.30;99.90;;;;;;4997507;28;20046;-82
2022/09/14 01:24:06;;;;;;;3.45;2.22;;;13.10;99.90;;;;;;5003999;28;20087;-83
2022/09/14 01:27:23;;;;;;;8.13;3.00;;;13.20;99.90;;;;;;5000834;28;20042;-82
2022/09/14 01:29:59;;;;;;;6.30;2.75;;;13.20;99.90;;;;;;4953251;28;20050;-83
2022/09/14 01:32:30;;;;;;;9.57;2.95;;;13.10;99.90;;;;;;5002678;28;20123;-84
2022/09/14 01:35:30;;;;;;;6.13;2.92;;;13.10;99.90;;;;;;5003504;28;20038;-81
2022/09/14 01:38:04;;;;;;;6.72;2.20;;;13.10;99.90;;;;;;4971979;28;20306;-83
2022/09/14 01:40:36;;;;;;;4.68;2.47;;;13.10;99.90;;;;;;5000617;28;20451;-83
2022/09/14 01:43:22;;;;;;;3.05;2.70;;;13.10;99.90;;;;;;5004141;28;20046;-82
2022/09/14 01:45:52;;;;;;;5.05;2.88;;;13.10;99.90;;;;;;4997049;28;20135;-83
2022/09/14 01:48:25;;;;;;;4.75;2.78;;;13.10;99.90;;;;;;5005365;28;20053;-82
2022/09/14 01:53:28;;;;;;;6.50;2.95;;;13.00;99.90;;;;;;5024344;22;20613;-82
2022/09/14 01:55:58;;;;;;;9.30;4.57;;;13.10;99.90;;;;;;5025679;28;20048;-82
2022/09/14 01:58:49;;;;;;;6.63;2.90;;;12.90;99.90;;;;;;5032150;28;20053;-82
2022/09/14 02:01:20;;;;;;;7.18;3.67;;;13.10;99.90;;;;;;5017086;28;20093;-82
2022/09/14 02:03:51;;;;;;;6.07;3.60;;;13.00;99.90;;;;;;5015733;28;20120;-81
2022/09/14 02:06:19;;;;;;;8.07;3.20;;;13.10;99.90;;;;;;5024694;28;20038;-83
2022/09/14 02:08:46;;;;;;;21.50;5.43;;;13.10;99.90;;;;;;5023643;28;20045;-82
2022/09/14 02:11:11;;;;;;;4.88;4.15;;;13.20;99.90;;;;;;5027897;28;20088;-83
2022/09/14 02:13:37;;;;;;;4.72;3.03;;;13.20;99.90;;;;;;5043122;28;20103;-82
2022/09/14 02:16:03;;;;;;;14.32;3.92;;;13.30;99.90;;;;;;5026566;28;20397;-82
2022/09/14 02:18:30;;;;;;;6.40;3.55;;;13.20;99.90;;;;;;5028088;28;20039;-82
2022/09/14 02:21:18;;;;;;;5.18;3.00;;;13.30;99.90;;;;;;5040110;28;20503;-81
2022/09/14 02:23:45;;;;;;;4.65;3.45;;;13.30;99.90;;;;;;5020701;28;20056;-82
2022/09/14 02:26:11;;;;;;;6.70;4.00;;;13.30;99.90;;;;;;5025521;28;20030;-83
2022/09/14 02:28:37;;;;;;;5.80;2.97;;;13.40;99.90;;;;;;5034419;28;20136;-81
2022/09/14 02:31:20;;;;;;;5.45;3.03;;;13.30;99.90;;;;;;5026542;28;20037;-81
2022/09/14 02:34:07;;;;;;;5.75;2.90;;;13.40;99.90;;;;;;5022999;28;20045;-82
2022/09/14 02:36:58;;;;;;;6.75;3.13;;;13.50;99.90;;;;;;5020117;28;20041;-83
2022/09/14 02:39:29;;;;;;;3.95;3.55;;;13.50;99.90;;;;;;5024910;28;20054;-81
2022/09/14 02:42:16;;;;;;;6.03;3.58;;;13.50;99.90;;;;;;5034059;28;20037;-81
2022/09/14 02:44:57;;;;;;;8.63;3.45;;;13.40;99.90;;;;;;5020362;28;20156;-81
2022/09/14 02:47:35;;;;;;;3.88;3.33;;;13.40;99.90;;;;;;5027488;28;20685;-82
2022/09/14 02:50:17;;;;;;;5.45;4.47;;;13.40;99.90;;;;;;5027542;28;20041;-81
2022/09/14 02:52:56;;;;;;;4.25;3.67;;;13.50;99.90;;;;;;5030444;28;20065;-81
2022/09/14 02:55:25;;;;;;;8.30;3.95;;;13.40;99.90;;;;;;5022799;28;20054;-81
2022/09/14 02:58:11;;;;;;;5.90;4.18;;;13.50;99.90;;;;;;5027504;28;20095;-82
2022/09/14 03:00:40;;;;;;;8.68;4.63;;;13.60;99.90;;;;;;5030953;28;20045;-81
2022/09/14 03:03:08;;;;;;;8.65;3.50;;;13.50;99.90;;;;;;5025289;28;20037;-81
2022/09/14 03:05:35;;;;;;;4.70;3.28;;;13.60;99.90;;;;;;5041800;28;20462;-82
2022/09/14 03:08:02;;;;;;;5.57;3.80;;;13.50;99.90;;;;;;5027142;28;20149;-82
2022/09/14 03:10:29;;;;;;;8.18;5.10;;;13.60;99.90;;;;;;5028496;28;20058;-81
2022/09/14 03:12:55;;;;;;;7.15;4.20;;;13.70;99.90;;;;;;5030015;28;20067;-81
2022/09/14 03:15:21;;;;;;;9.00;4.70;;;13.70;99.90;;;;;;5024785;28;20038;-81
2022/09/14 03:17:48;;;;;;;5.82;3.38;;;13.70;99.90;;;;;;5028606;28;20455;-82
2022/09/14 03:20:21;;;;;;;10.32;4.65;;;13.80;99.90;;;;;;5030079;28;20079;-83
2022/09/14 03:22:47;;;;;;;7.93;4.57;;;13.70;99.90;;;;;;5026106;28;20488;-81
2022/09/14 03:25:13;;;;;;;7.22;3.42;;;13.80;99.90;;;;;;5035936;28;20060;-81
2022/09/14 03:27:40;;;;;;;6.30;3.63;;;13.80;99.90;;;;;;5022474;28;20076;-81
2022/09/14 03:30:07;;;;;;;12.05;4.45;;;13.70;99.90;;;;;;5020838;28;20103;-81
2022/09/14 03:32:33;;;;;;;7.43;4.53;;;13.90;99.90;;;;;;5019007;28;20045;-81
2022/09/14 03:34:59;;;;;;;7.60;4.10;;;13.70;99.90;;;;;;5020151;28;20595;-84
2022/09/14 03:37:25;;;;;;;10.98;5.22;;;13.80;99.90;;;;;;5021450;28;20550;-83
2022/09/14 03:39:51;;;;;;;6.60;3.80;;;13.80;99.90;;;;;;5020797;28;20389;-83
2022/09/14 03:42:17;;;;;;;4.93;3.25;;;13.70;99.90;;;;;;5021502;28;20064;-82
2022/09/14 03:44:43;;;;;;;8.85;3.70;;;13.90;99.90;;;;;;5023604;28;20033;-84
2022/09/14 03:47:08;;;;;;;4.00;3.15;;;13.90;99.90;;;;;;5021824;28;20552;-82
2022/09/14 03:49:34;;;;;;;8.40;4.05;;;13.90;99.90;;;;;;5020675;28;20037;-81
2022/09/14 03:52:00;;;;;;;7.95;4.30;;;13.80;99.90;;;;;;5020959;28;20535;-83
2022/09/14 03:54:26;;;;;;;8.63;3.83;;;13.90;99.90;;;;;;5021839;28;20049;-83
2022/09/14 03:56:52;;;;;;;11.63;4.55;;;13.80;99.90;;;;;;5020467;28;20037;-82
2022/09/14 03:59:19;;;;;;;8.00;3.95;;;13.90;99.90;;;;;;5028046;28;20045;-82
2022/09/14 04:01:45;;;;;;;6.10;4.07;;;13.80;99.90;;;;;;5020248;28;20061;-82
2022/09/14 04:04:11;;;;;;;7.80;4.32;;;13.80;99.90;;;;;;5021714;28;20037;-82
2022/09/14 04:06:37;;;;;;;8.43;4.05;;;13.90;99.90;;;;;;5020587;28;20038;-82
2022/09/14 04:09:03;;;;;;;9.55;4.30;;;14.00;99.90;;;;;;5021829;28;20048;-83
2022/09/14 04:11:30;;;;;;;14.73;5.28;;;14.00;99.90;;;;;;5025189;28;20054;-82
2022/09/14 04:14:03;;;;;;;11.43;5.22;;;14.00;99.90;;;;;;5021684;28;20033;-83
2022/09/14 04:16:29;;;;;;;10.57;5.72;;;14.00;99.90;;;;;;5022161;28;20042;-81
2022/09/14 04:18:55;;;;;;;9.02;4.47;;;13.90;99.90;;;;;;5020544;28;20052;-83
2022/09/14 04:21:22;;;;;;;8.02;3.38;;;13.90;99.90;;;;;;5036443;28;20057;-82
2022/09/14 04:23:51;;;;;;;9.15;5.15;;;14.00;99.90;;;;;;5036568;28;20128;-83
2022/09/14 04:26:19;;;;;;;6.68;3.65;;;14.00;99.90;;;;;;5024236;28;20041;-82
2022/09/14 04:28:45;;;;;;;7.00;4.15;;;13.90;99.90;;;;;;5020878;28;20042;-82
2022/09/14 04:31:12;;;;;;;8.98;4.13;;;14.10;99.90;;;;;;5029319;28;20146;-84
2022/09/14 04:33:40;;;;;;;8.15;4.22;;;13.90;99.90;;;;;;5018035;28;20034;-83
2022/09/14 04:36:09;;;;;;;8.30;4.13;;;14.00;99.90;;;;;;5023600;28;20041;-83
2022/09/14 04:38:36;;;;;;;10.63;4.15;;;14.00;99.90;;;;;;5025775;28;20069;-82
2022/09/14 04:41:07;;;;;;;5.32;4.05;;;14.10;99.90;;;;;;5025311;28;20657;-83
2022/09/14 04:43:34;;;;;;;9.70;4.60;;;13.90;99.90;;;;;;5024369;28;20046;-83
2022/09/14 04:46:04;;;;;;;6.63;4.47;;;14.10;99.90;;;;;;5026168;28;20082;-82
2022/09/14 04:48:34;;;;;;;8.18;4.03;;;13.90;99.90;;;;;;5022185;28;20037;-83
2022/09/14 04:51:33;;;;;;;7.32;3.83;;;14.10;99.90;;;;;;5022269;28;20287;-84
2022/09/14 04:54:00;;;;;;;9.32;3.78;;;14.10;99.90;;;;;;4997222;28;20115;-83
2022/09/14 04:56:27;;;;;;;6.50;4.50;;;14.10;99.90;;;;;;5024054;28;20487;-83
2022/09/14 04:58:57;;;;;;;8.55;4.47;;;14.00;99.90;;;;;;5023016;28;20642;-82
2022/09/14 05:01:25;;;;;;;6.10;3.78;;;14.00;99.90;;;;;;5018857;28;20036;-81
2022/09/14 05:03:51;;;;;;;6.63;4.40;;;14.00;99.90;;;;;;5016940;28;20049;-82
2022/09/14 05:06:26;;;;;;;13.70;3.85;;;14.20;99.90;;;;;;5017112;28;20095;-83
2022/09/14 05:08:53;;;;;;;5.78;3.72;;;14.00;99.90;;;;;;5024796;28;20076;-82
2022/09/14 05:11:21;;;;;;;9.15;3.97;;;14.10;99.90;;;;;;5021350;28;20068;-81
2022/09/14 05:13:47;;;;;;;6.65;3.22;;;13.90;99.90;;;;;;5020938;28;20049;-82
2022/09/14 05:16:21;;;;;;;6.10;3.40;;;14.00;99.90;;;;;;5022317;28;20037;-82
2022/09/14 05:18:48;;;;;;;4.55;2.80;;;14.00;99.90;;;;;;5021452;28;20403;-82
2022/09/14 05:21:16;;;;;;;7.57;3.88;;;14.10;99.90;;;;;;5021934;28;20044;-82
2022/09/14 05:23:43;;;;;;;11.55;4.35;;;13.90;99.90;;;;;;5004176;28;20165;-83
2022/09/14 05:26:09;;;;;;;7.82;3.65;;;13.90;99.90;;;;;;5022544;28;20072;-82
2022/09/14 05:28:35;;;;;;;8.48;3.25;;;14.10;99.90;;;;;;5018651;28;20065;-82
2022/09/14 05:31:06;;;;;;;9.15;3.53;;;14.00;99.90;;;;;;5019987;28;20198;-82
2022/09/14 05:33:33;;;;;;;11.05;3.97;;;14.10;99.90;;;;;;5016511;28;20069;-82
2022/09/14 05:36:05;;;;;;;5.10;3.58;;;13.90;99.90;;;;;;5017613;28;20391;-82
2022/09/14 05:38:33;;;;;;;10.18;3.05;;;14.00;99.90;;;;;;5023981;28;20049;-80
2022/09/14 05:40:58;;;;;;;9.55;3.40;;;13.90;99.90;;;;;;5032466;28;20038;-82
2022/09/14 05:43:24;;;;;;;8.23;3.55;;;14.00;99.90;;;;;;5025786;28;20075;-81
2022/09/14 05:45:50;;;;;;;9.30;3.90;;;14.00;99.90;;;;;;5034949;28;20049;-82
2022/09/14 05:48:17;;;;;;;7.25;2.47;;;14.00;99.90;;;;;;5040441;28;20040;-81
2022/09/14 05:50:42;;;;;;;3.08;2.80;;;14.20;99.90;;;;;;5037968;28;20073;-81
2022/09/14 05:53:08;;;;;;;10.20;3.75;;;14.00;99.90;;;;;;5038223;28;20076;-80
2022/09/14 05:55:34;;;;;;;5.30;2.40;;;14.00;99.90;;;;;;5036646;28;20045;-81
2022/09/14 05:57:59;;;;;;;3.60;2.92;;;14.00;99.90;;;;;;5049799;28;20037;-81
2022/09/14 06:00:26;;;;;;;7.88;4.32;;;14.00;99.90;;;;;;5055078;28;20068;-79
2022/09/14 06:02:53;;;;;;;5.13;2.92;;;14.20;99.90;;;;;;5047845;28;20109;-82
2022/09/14 06:05:20;;;;;;;8.38;3.10;;;14.30;99.90;;;;;;5026265;28;20150;-79
2022/09/14 06:07:51;;;;;;;6.28;2.80;;;14.10;99.90;;;;;;5038982;28;20049;-82
2022/09/14 06:10:17;;;;;;;5.43;3.40;;;14.30;99.90;;;;;;5056348;28;20089;-82
2022/09/14 06:12:43;;;;;;;6.88;3.40;;;14.40;99.90;;;;;;5058242;28;20029;-83
2022/09/14 06:15:09;;;;;;;6.00;3.80;;;14.40;99.90;;;;;;5067955;28;20021;-82
2022/09/14 06:17:36;;;;;;;7.45;3.75;;;14.40;99.90;;;;;;5036441;28;20033;-83
2022/09/14 06:20:03;;;;;;;7.65;3.58;;;14.30;99.90;;;;;;5048970;28;20056;-82
2022/09/14 06:22:30;;;;;;;8.77;3.40;;;14.30;99.90;;;;;;5058942;28;20072;-81
2022/09/14 06:24:55;;;;;;;9.35;3.65;;;14.40;99.90;;;;;;5047753;28;20042;-82
2022/09/14 06:27:21;;;;;;;8.40;3.67;;;14.50;99.90;;;;;;5048266;28;20056;-82
2022/09/14 06:29:50;;;;;;;8.45;3.42;;;14.40;99.90;;;;;;5045562;28;20497;-82
2022/09/14 06:32:17;;;;;;;6.55;2.95;;;14.50;99.90;;;;;;5037765;28;20037;-82
2022/09/14 06:34:43;;;;;;;6.90;3.63;;;14.60;99.90;;;;;;5031026;28;20095;-82
2022/09/14 06:37:09;;;;;;;8.48;3.22;;;14.70;99.90;;;;;;5024649;28;20042;-82
2022/09/14 06:39:35;;;;;;;4.68;3.10;;;14.80;99.90;;;;;;5021520;28;20076;-81
2022/09/14 06:42:01;;;;;;;9.15;3.00;;;14.80;99.90;;;;;;5021346;28;20132;-83
2022/09/14 06:44:27;;;;;;;7.68;3.78;;;14.90;99.90;;;;;;5005866;28;20120;-83
2022/09/14 06:46:52;;;;;;;5.43;3.70;;;14.90;99.90;;;;;;5021675;28;20036;-83
2022/09/14 06:49:21;;;;;;;7.95;4.22;;;15.10;99.90;;;;;;5021475;28;20141;-83
2022/09/14 06:51:48;;;;;;;5.78;2.63;;;14.90;99.90;;;;;;5019650;28;20059;-83
2022/09/14 06:54:15;;;;;;;3.92;2.53;;;15.00;99.90;;;;;;5018226;28;20059;-82
2022/09/14 06:56:42;;;;;;;9.90;2.80;;;15.10;99.90;;;;;;5019514;28;20038;-83
2022/09/14 06:59:10;;;;;;;5.85;2.95;;;15.00;99.90;;;;;;5024659;28;20109;-83
2022/09/14 07:01:36;;;;;;;4.82;2.85;;;15.20;99.90;;;;;;5028215;28;20510;-84
2022/09/14 07:04:02;;;;;;;3.88;3.08;;;15.20;99.90;;;;;;5033603;28;20025;-85
2022/09/14 07:06:31;;;;;;;7.28;3.35;;;15.20;99.90;;;;;;5020384;28;20068;-82
2022/09/14 07:08:56;;;;;;;3.63;2.83;;;15.40;99.90;;;;;;5031432;28;20033;-81
2022/09/14 07:11:25;;;;;;;3.85;2.80;;;15.50;99.90;;;;;;5022482;28;20060;-80
2022/09/14 07:13:53;;;;;;;4.38;2.97;;;15.60;99.90;;;;;;5021590;28;20052;-77
2022/09/14 07:16:19;;;;;;;4.53;2.72;;;15.60;99.90;;;;;;5020360;28;20483;-78
2022/09/14 07:18:45;;;;;;;5.65;3.72;;;15.50;99.90;;;;;;5021628;28;20026;-79
2022/09/14 07:21:16;;;;;;;6.88;2.95;;;15.70;99.90;;;;;;5020029;28;20395;-78
2022/09/14 07:23:44;;;;;;;6.82;3.70;;;15.70;99.90;;;;;;5018722;28;20044;-79
2022/09/14 07:26:14;;;;;;;6.90;3.50;;;15.80;99.90;;;;;;5018855;28;20083;-78
2022/09/14 07:28:41;;;;;;;7.78;3.30;;;16.00;99.90;;;;;;5020556;28;20072;-79
2022/09/14 07:31:17;;;;;;;5.88;3.35;;;16.00;99.90;;;;;;5025556;28;20103;-79
2022/09/14 07:33:43;;;;;;;5.75;2.83;;;16.10;99.90;;;;;;5022706;28;20453;-79
2022/09/14 07:36:11;;;;;;;5.13;3.05;;;15.90;99.90;;;;;;5024444;28;20053;-78
2022/09/14 07:38:37;;;;;;;8.57;4.35;;;16.20;99.90;;;;;;5015935;28;20041;-78
2022/09/14 07:41:03;;;;;;;5.35;3.53;;;16.20;99.90;;;;;;5020882;28;20862;-80
2022/09/14 07:43:29;;;;;;;4.70;2.75;;;16.30;99.90;;;;;;5024082;28;20033;-79
2022/09/14 07:45:55;;;;;;;5.85;3.92;;;16.50;99.90;;;;;;5020449;28;20420;-80
2022/09/14 07:48:21;;;;;;;7.53;2.85;;;16.50;99.90;;;;;;5022970;28;20049;-79
2022/09/14 07:50:47;;;;;;;6.32;3.05;;;16.40;99.90;;;;;;5022849;28;20446;-79
2022/09/14 07:53:13;;;;;;;5.30;2.20;;;16.50;99.90;;;;;;5021764;28;20080;-80
2022/09/14 07:55:39;;;;;;;9.02;2.03;;;16.60;99.90;;;;;;5023366;28;20053;-80
2022/09/14 07:58:06;;;;;;;8.48;1.88;;;16.40;99.90;;;;;;5024976;28;20083;-80
2022/09/14 08:00:32;;;;;;;9.18;1.45;;;16.40;99.90;;;;;;5027977;28;20052;-79
2022/09/14 08:02:58;;;;;;;4.75;1.50;;;16.50;99.90;;;;;;5027693;28;20041;-75
2022/09/14 08:05:24;;;;;;;7.80;1.55;;;16.60;99.90;;;;;;5026064;28;20041;-78
2022/09/14 08:07:57;;;;;;;3.55;0.90;;;16.50;99.90;;;;;;5025263;28;20041;-78
2022/09/14 08:10:24;;;;;;;3.63;0.95;;;16.50;99.90;;;;;;5039127;28;20037;-79
2022/09/14 08:12:54;;;;;;;8.32;1.83;;;16.50;99.90;;;;;;5020750;28;20037;-79
2022/09/14 08:15:21;;;;;;;17.30;2.75;;;16.60;99.90;;;;;;5032846;28;20044;-78
2022/09/14 08:17:48;;;;;;;6.65;1.00;;;16.70;99.90;;;;;;5028238;28;20048;-80
2022/09/14 08:20:15;;;;;;;3.80;1.30;;;16.70;99.90;;;;;;5045292;28;20472;-81
2022/09/14 08:22:44;;;;;;;6.30;1.60;;;16.80;99.90;;;;;;5020211;28;20038;-80
2022/09/14 08:25:11;;;;;;;11.70;1.63;;;16.90;99.90;;;;;;5025084;28;20029;-80
2022/09/14 08:27:37;;;;;;;4.78;0.70;;;16.90;99.90;;;;;;5026979;28;20464;-81
2022/09/14 08:30:04;;;;;;;3.08;0.60;;;17.00;99.90;;;;;;5039819;28;20049;-81
2022/09/14 08:32:30;;;;;;;5.10;0.80;;;17.00;99.90;;;;;;5024661;28;20099;-82
2022/09/14 08:34:56;;;;;;;8.77;1.08;;;17.00;99.90;;;;;;5027048;28;20411;-82
2022/09/14 08:37:21;;;;;;;9.45;2.22;;;17.10;99.90;;;;;;5026417;28;20045;-82
2022/09/14 08:39:47;;;;;;;8.75;2.05;;;17.10;99.90;;;;;;5030064;28;20100;-82
2022/09/14 08:42:16;;;;;;;4.53;0.77;;;17.10;99.90;;;;;;5022657;28;20041;-81
2022/09/14 08:44:48;;;;;;;3.60;1.57;;;17.20;99.90;;;;;;5035811;28;20045;-80
2022/09/14 08:47:38;;;;;;;5.53;0.82;;;17.20;99.90;;;;;;5025867;28;20359;-80
2022/09/14 08:50:20;;;;;;;8.27;1.00;;;17.30;99.90;;;;;;5025298;28;20052;-81
2022/09/14 08:52:53;;;;;;;4.07;0.73;;;17.70;99.90;;;;;;5023383;28;20068;-82
2022/09/14 08:55:40;;;;;;;5.53;1.00;;;17.90;99.90;;;;;;5007279;28;20049;-81
2022/09/14 08:58:27;;;;;;;7.07;1.27;;;18.20;99.90;;;;;;5029415;28;20117;-82
2022/09/14 09:00:58;;;;;;;6.13;0.63;;;18.10;99.90;;;;;;5017235;28;20462;-82
2022/09/14 09:03:46;;;;;;;4.30;1.58;;;17.90;99.90;;;;;;5026162;28;20049;-83
2022/09/14 09:06:22;;;;;;;11.00;2.85;;;17.90;99.90;;;;;;5022729;28;20381;-82
2022/09/14 09:09:06;;;;;;;5.50;0.63;;;17.90;99.90;;;;;;5026055;28;20076;-82
2022/09/14 09:11:45;;;;;;;4.80;0.68;;;17.90;99.90;;;;;;5027413;28;20049;-82
2022/09/14 09:14:26;;;;;;;8.43;0.80;;;17.90;99.90;;;;;;5021079;28;20041;-81
2022/09/14 09:16:56;;;;;;;4.78;0.43;;;18.00;99.90;;;;;;5031702;28;20052;-82
2022/09/14 09:19:44;;;;;;;5.75;1.42;;;18.10;99.90;;;;;;5017765;28;20052;-82
2022/09/14 09:22:15;;;;;;;3.97;0.43;;;18.50;99.90;;;;;;5020149;28;20048;-75
2022/09/14 09:24:46;;;;;;;4.07;0.70;;;18.90;99.90;;;;;;5017902;28;20643;-81
2022/09/14 09:27:14;;;;;;;4.38;0.47;;;19.20;99.90;;;;;;5019408;28;20140;-80
2022/09/14 09:29:40;;;;;;;5.63;1.33;;;19.30;99.90;;;;;;5021356;28;20037;-78
2022/09/14 09:32:11;;;;;;;4.97;0.57;;;19.10;99.90;;;;;;5024811;28;20125;-81
2022/09/14 09:34:37;;;;;;;4.78;0.95;;;19.00;99.90;;;;;;5021272;28;20041;-80
2022/09/14 09:37:03;;;;;;;5.25;1.50;;;18.70;99.90;;;;;;5024146;28;20048;-80
2022/09/14 09:39:30;;;;;;;3.25;0.70;;;18.70;99.90;;;;;;5024508;28;20073;-80
2022/09/14 09:42:04;;;;;;;1.90;0.30;;;18.70;99.90;;;;;;5029269;28;20104;-80
2022/09/14 09:44:55;;;;;;;8.02;1.13;;;18.60;99.90;;;;;;5036493;28;20060;-78
2022/09/14 09:47:32;;;;;;;8.65;1.05;;;18.50;99.90;;;;;;5045738;28;20128;-79
2022/09/14 09:50:25;;;;;;;7.53;0.70;;;18.60;99.90;;;;;;5025930;28;20045;-79
2022/09/14 09:52:53;;;;;;;4.93;1.05;;;18.60;99.90;;;;;;5021859;28;20446;-79
2022/09/14 09:55:21;;;;;;;10.32;1.40;;;18.70;99.90;;;;;;5023481;28;20053;-80
2022/09/14 09:57:47;;;;;;;2.58;0.35;;;18.70;99.90;;;;;;5021555;28;20053;-81
2022/09/14 10:00:19;;;;;;;4.60;0.60;;;18.80;99.90;;;;;;5025499;28;20113;-80
2022/09/14 10:02:45;;;;;;;3.63;0.60;;;19.00;99.90;;;;;;5025045;28;20054;-81
2022/09/14 10:05:16;;;;;;;12.80;0.68;;;19.00;99.90;;;;;;5026916;28;20135;-80
2022/09/14 10:07:48;;;;;;;1.15;0.40;;;18.90;99.90;;;;;;5024176;28;20048;-80
2022/09/14 10:10:16;;;;;;;4.47;0.52;;;19.10;99.90;;;;;;5025619;28;20038;-79
2022/09/14 10:12:54;;;;;;;7.78;1.58;;;19.10;99.90;;;;;;4994370;28;20128;-78
2022/09/14 10:15:26;;;;;;;3.08;0.70;;;19.30;99.90;;;;;;5008901;28;20082;-79
2022/09/14 10:18:00;;;;;;;6.28;0.85;;;19.10;99.90;;;;;;5008683;28;20515;-80
2022/09/14 10:20:26;;;;;;;5.00;0.88;;;19.00;99.90;;;;;;5022117;28;20060;-78
2022/09/14 10:22:52;;;;;;;6.50;1.00;;;19.30;99.90;;;;;;5021478;28;20280;-79
2022/09/14 10:25:18;;;;;;;5.43;0.50;;;19.50;99.90;;;;;;5024579;28;20045;-80
2022/09/14 10:27:54;;;;;;;6.55;0.98;;;19.20;99.90;;;;;;5027679;28;20038;-82
2022/09/14 10:30:31;;;;;;;6.93;1.35;;;19.20;99.90;;;;;;5022523;28;20049;-81
2022/09/14 10:33:07;;;;;;;1.88;0.40;;;19.10;99.90;;;;;;5022650;28;20038;-85
2022/09/14 10:35:46;;;;;;;1.30;0.45;;;19.20;99.90;;;;;;5027221;28;20080;-85
2022/09/14 10:38:33;;;;;;;1.80;0.68;;;19.10;99.90;;;;;;5030184;28;20045;-85
2022/09/14 10:41:29;;;;;;;3.92;0.70;;;18.70;99.90;;;;;;5018608;28;20050;-84
2022/09/14 10:44:01;;;;;;;3.85;0.68;;;18.70;99.90;;;;;;5016364;28;20042;-84
2022/09/14 10:46:47;;;;;;;5.10;1.48;;;19.00;99.90;;;;;;5018051;28;20049;-86
2022/09/14 10:49:36;;;;;;;6.60;1.80;;;19.10;99.90;;;;;;5030941;28;20084;-84
2022/09/14 10:52:15;;;;;;;4.00;0.57;;;19.20;99.90;;;;;;5036904;28;20093;-87
2022/09/14 10:54:56;;;;;;;4.35;0.85;;;19.00;99.90;;;;;;5033951;28;20373;-85
2022/09/14 10:57:53;;;;;;;3.65;0.50;;;19.00;99.90;;;;;;5021882;28;20043;-83
2022/09/14 11:00:20;;;;;;;3.78;0.52;;;19.00;99.90;;;;;;5030253;28;20121;-85
2022/09/14 11:02:58;;;;;;;7.30;1.85;;;18.90;99.90;;;;;;5038437;28;20060;-84
2022/09/14 11:05:50;;;;;;;8.95;1.67;;;18.80;99.90;;;;;;5049582;28;20041;-84
2022/09/14 11:08:37;;;;;;;5.10;1.08;;;18.90;99.90;;;;;;4995387;28;20053;-78
2022/09/14 11:11:03;;;;;;;2.13;0.68;;;19.00;99.90;;;;;;5011061;28;20123;-79
2022/09/14 11:13:53;;;;;;;7.60;0.82;;;19.10;99.90;;;;;;5029043;28;20513;-77
2022/09/14 11:16:28;;;;;;;2.38;0.40;;;19.20;99.90;;;;;;5026021;28;20259;-77
2022/09/14 11:19:11;;;;;;;3.50;0.57;;;19.30;99.90;;;;;;5033521;28;20049;-77
2022/09/14 11:21:39;;;;;;;4.20;0.65;;;19.40;99.90;;;;;;5025029;28;20034;-77
2022/09/14 11:24:39;;;;;;;5.40;1.05;;;19.70;99.90;;;;;;5029698;28;20045;-77
2022/09/14 11:27:28;;;;;;;3.17;0.53;;;19.80;99.90;;;;;;5026439;28;20026;-77
2022/09/14 11:30:01;;;;;;;4.20;1.30;;;19.90;99.90;;;;;;5022166;28;20095;-78
2022/09/14 11:32:36;;;;;;;5.13;0.65;;;19.90;99.90;;;;;;5024630;28;20099;-78
2022/09/14 11:35:04;;;;;;;3.88;1.30;;;19.90;99.90;;;;;;5026693;28;20045;-78
2022/09/14 11:37:52;;;;;;;4.32;0.68;;;19.80;99.90;;;;;;5014731;28;20052;-76
2022/09/14 11:40:29;;;;;;;2.75;0.73;;;19.40;99.90;;;;;;5040120;28;20041;-78
2022/09/14 11:43:15;;;;;;;4.43;0.50;;;19.90;99.90;;;;;;5007634;28;20041;-78
2022/09/14 11:45:47;;;;;;;7.72;1.13;;;20.10;99.90;;;;;;5023866;28;20438;-78
2022/09/14 11:48:23;;;;;;;4.95;2.35;;;20.40;99.90;;;;;;5024071;28;20061;-78
2022/09/14 11:50:50;;;;;;;3.33;0.63;;;20.50;99.90;;;;;;5026216;28;20431;-78
2022/09/14 11:53:17;;;;;;;2.00;0.52;;;20.60;99.90;;;;;;5025826;28;20146;-77
2022/09/14 11:55:48;;;;;;;4.68;1.38;;;20.60;99.90;;;;;;5025443;28;20496;-78
2022/09/14 11:58:21;;;;;;;4.95;0.65;;;20.70;99.90;;;;;;5024252;28;20049;-77
2022/09/14 12:01:24;;;;;;;4.15;1.48;;;20.60;99.90;;;;;;5025818;28;20041;-77
2022/09/14 12:04:09;;;;;;;7.63;0.85;;;20.30;99.90;;;;;;5026850;28;20097;-78
2022/09/14 12:06:35;;;;;;;4.63;1.30;;;20.10;99.90;;;;;;5025627;28;20064;-78
2022/09/14 12:09:13;;;;;;;4.53;0.65;;;20.10;99.90;;;;;;5022981;28;20515;-78
2022/09/14 12:11:41;;;;;;;2.05;0.55;;;20.20;99.90;;;;;;5022851;28;20075;-79
2022/09/14 12:14:28;;;;;;;3.80;0.80;;;20.20;99.90;;;;;;5040533;28;20048;-77
2022/09/14 12:17:32;;;;;;;3.08;1.08;;;19.90;99.90;;;;;;5029521;28;20053;-78
2022/09/14 12:20:39;;;;;;;10.70;0.98;;;20.00;99.90;;;;;;5006530;28;20044;-77
2022/09/14 12:23:11;;;;;;;4.80;0.77;;;19.90;99.90;;;;;;5006639;28;20061;-78
2022/09/14 12:25:38;;;;;;;5.82;0.85;;;19.80;99.90;;;;;;5028120;28;20045;-77
2022/09/14 12:28:39;;;;;;;1.65;0.60;;;19.90;99.90;;;;;;5036914;28;20044;-78
2022/09/14 12:31:09;;;;;;;5.05;0.88;;;20.10;99.90;;;;;;5024851;28;20049;-79
2022/09/14 12:33:38;;;;;;;5.82;0.85;;;20.10;99.90;;;;;;5024130;28;20033;-78
2022/09/14 12:36:11;;;;;;;2.83;0.70;;;20.20;99.90;;;;;;5025725;28;20041;-79
2022/09/14 12:38:37;;;;;;;2.05;0.57;;;19.90;99.90;;;;;;5024816;28;20034;-78
2022/09/14 12:41:09;;;;;;;3.42;1.73;;;19.80;99.90;;;;;;5025981;28;20431;-79
2022/09/14 12:43:38;;;;;;;3.53;0.57;;;19.80;99.90;;;;;;5024014;28;20069;-80
2022/09/14 12:46:09;;;;;;;5.25;0.70;;;20.00;99.90;;;;;;5024787;28;20049;-79
2022/09/14 12:48:47;;;;;;;3.85;1.02;;;20.60;99.90;;;;;;5031100;28;20459;-79
2022/09/14 12:51:29;;;;;;;1.52;0.70;;;20.60;99.90;;;;;;5022241;28;20448;-78
2022/09/14 12:53:59;;;;;;;2.30;0.43;;;20.40;99.90;;;;;;5025096;28;20045;-79
2022/09/14 12:56:26;;;;;;;6.70;0.77;;;20.20;99.90;;;;;;5025944;28;20106;-81
2022/09/14 12:59:01;;;;;;;11.88;2.83;;;20.00;99.90;;;;;;5023397;28;20049;-81
2022/09/14 13:01:45;;;;;;;19.77;1.98;;;20.10;99.90;;;;;;5025134;28;20045;-80
2022/09/14 13:04:15;;;;;;;14.43;1.63;;;20.00;99.90;;;;;;5025386;28;20041;-79
2022/09/14 13:06:44;;;;;;;4.63;0.60;;;19.70;99.90;;;;;;5024753;28;20466;-79
2022/09/14 13:09:20;;;;;;;4.38;0.88;;;19.90;99.90;;;;;;5044295;28;20033;-74
2022/09/14 13:11:52;;;;;;;2.78;0.60;;;20.00;99.90;;;;;;5033755;28;20042;-79